sensor_id;sensor_type;location;lat;lon;timestamp;P1;durP1;ratioP1;P2;durP2;ratioP2
7747;SDS011;3918;42.564;23.164;2022-11-21T06:01:54;6.65;;;2.47;;
7747;SDS011;3918;42.564;23.164;2022-11-21T06:04:38;9.30;;;3.10;;
7747;SDS011;3918;42.564;23.164;2022-11-21T06:07:05;7.15;;;3.00;;
7747;SDS011;3918;42.564;23.164;2022-11-21T06:09:32;8.85;;;3.20;;
7747;SDS011;3918;42.564;23.164;2022-11-21T06:11:59;10.32;;;2.80;;
7747;SDS011;3918;42.564;23.164;2022-11-21T06:14:26;7.43;;;2.33;;
7747;SDS011;3918;42.564;23.164;2022-11-21T06:16:54;8.38;;;2.28;;
7747;SDS011;3918;42.564;23.164;2022-11-21T06:19:21;6.03;;;2.42;;
7747;SDS011;3918;42.564;23.164;2022-11-21T06:21:48;8.95;;;5.88;;
7747;SDS011;3918;42.564;23.164;2022-11-21T06:24:14;7.45;;;4.30;;
7747;SDS011;3918;42.564;23.164;2022-11-21T06:26:41;7.70;;;4.03;;
7747;SDS011;3918;42.564;23.164;2022-11-21T06:29:09;8.20;;;7.35;;
7747;SDS011;3918;42.564;23.164;2022-11-21T06:31:36;13.23;;;12.35;;
7747;SDS011;3918;42.564;23.164;2022-11-21T06:34:04;12.10;;;10.48;;
7747;SDS011;3918;42.564;23.164;2022-11-21T06:36:31;6.53;;;6.03;;
7747;SDS011;3918;42.564;23.164;2022-11-21T06:38:58;11.07;;;6.88;;
7747;SDS011;3918;42.564;23.164;2022-11-21T06:41:25;10.00;;;5.85;;
7747;SDS011;3918;42.564;23.164;2022-11-21T06:43:54;6.32;;;5.80;;
7747;SDS011;3918;42.564;23.164;2022-11-21T06:46:21;8.35;;;7.47;;
7747;SDS011;3918;42.564;23.164;2022-11-21T06:48:47;8.15;;;6.75;;
7747;SDS011;3918;42.564;23.164;2022-11-21T06:51:16;6.55;;;6.00;;
7747;SDS011;3918;42.564;23.164;2022-11-21T06:53:45;8.77;;;8.07;;
7747;SDS011;3918;42.564;23.164;2022-11-21T06:56:13;9.02;;;7.18;;
7747;SDS011;3918;42.564;23.164;2022-11-21T06:58:40;7.45;;;6.88;;
7747;SDS011;3918;42.564;23.164;2022-11-21T07:01:08;11.10;;;7.68;;
7747;SDS011;3918;42.564;23.164;2022-11-21T07:03:35;9.18;;;7.10;;
7747;SDS011;3918;42.564;23.164;2022-11-21T07:06:05;7.72;;;7.03;;
7747;SDS011;3918;42.564;23.164;2022-11-21T07:08:34;6.15;;;5.55;;
7747;SDS011;3918;42.564;23.164;2022-11-21T07:11:01;6.40;;;5.85;;
7747;SDS011;3918;42.564;23.164;2022-11-21T07:13:30;7.30;;;6.00;;
7747;SDS011;3918;42.564;23.164;2022-11-21T07:15:59;6.75;;;6.15;;
7747;SDS011;3918;42.564;23.164;2022-11-21T07:18:27;9.55;;;8.63;;
7747;SDS011;3918;42.564;23.164;2022-11-21T07:20:56;8.65;;;7.40;;
7747;SDS011;3918;42.564;23.164;2022-11-21T07:23:23;9.68;;;7.85;;
7747;SDS011;3918;42.564;23.164;2022-11-21T07:25:51;8.63;;;7.45;;
7747;SDS011;3918;42.564;23.164;2022-11-21T07:28:18;187.68;;;11.20;;
7747;SDS011;3918;42.564;23.164;2022-11-21T07:30:45;165.65;;;19.80;;
7747;SDS011;3918;42.564;23.164;2022-11-21T07:33:12;138.30;;;8.73;;
7747;SDS011;3918;42.564;23.164;2022-11-21T07:35:39;289.65;;;13.70;;
7747;SDS011;3918;42.564;23.164;2022-11-21T07:38:07;619.17;;;29.70;;
7747;SDS011;3918;42.564;23.164;2022-11-21T07:40:33;417.65;;;21.70;;
7747;SDS011;3918;42.564;23.164;2022-11-21T07:43:03;267.33;;;14.30;;
7747;SDS011;3918;42.564;23.164;2022-11-21T07:45:31;276.90;;;14.23;;
7747;SDS011;3918;42.564;23.164;2022-11-21T07:47:58;34.17;;;5.32;;
7747;SDS011;3918;42.564;23.164;2022-11-21T07:50:25;86.88;;;8.35;;
7747;SDS011;3918;42.564;23.164;2022-11-21T07:52:55;195.32;;;14.30;;
7747;SDS011;3918;42.564;23.164;2022-11-21T07:55:23;209.82;;;16.50;;
7747;SDS011;3918;42.564;23.164;2022-11-21T07:57:56;255.25;;;16.80;;
7747;SDS011;3918;42.564;23.164;2022-11-21T08:00:25;190.07;;;12.65;;
7747;SDS011;3918;42.564;23.164;2022-11-21T08:02:52;355.83;;;23.10;;
7747;SDS011;3918;42.564;23.164;2022-11-21T08:05:19;357.38;;;23.58;;
7747;SDS011;3918;42.564;23.164;2022-11-21T08:07:46;33.75;;;8.98;;
7747;SDS011;3918;42.564;23.164;2022-11-21T08:10:13;10.30;;;5.90;;
7747;SDS011;3918;42.564;23.164;2022-11-21T08:12:40;5.65;;;5.22;;
7747;SDS011;3918;42.564;23.164;2022-11-21T08:15:08;6.63;;;5.93;;
7747;SDS011;3918;42.564;23.164;2022-11-21T08:17:36;6.88;;;5.32;;
7747;SDS011;3918;42.564;23.164;2022-11-21T08:20:04;16.27;;;6.22;;
7747;SDS011;3918;42.564;23.164;2022-11-21T08:22:32;101.70;;;10.07;;
7747;SDS011;3918;42.564;23.164;2022-11-21T08:25:03;81.93;;;9.00;;
7747;SDS011;3918;42.564;23.164;2022-11-21T08:27:31;10.52;;;5.57;;
7747;SDS011;3918;42.564;23.164;2022-11-21T08:29:57;10.07;;;5.47;;
7747;SDS011;3918;42.564;23.164;2022-11-21T08:32:24;132.07;;;11.43;;
7747;SDS011;3918;42.564;23.164;2022-11-21T08:34:52;30.30;;;8.18;;
7747;SDS011;3918;42.564;23.164;2022-11-21T08:37:19;7.00;;;6.60;;
7747;SDS011;3918;42.564;23.164;2022-11-21T08:39:46;6.55;;;6.25;;
7747;SDS011;3918;42.564;23.164;2022-11-21T08:42:13;6.53;;;6.18;;
7747;SDS011;3918;42.564;23.164;2022-11-21T08:44:40;4.90;;;4.70;;
7747;SDS011;3918;42.564;23.164;2022-11-21T08:47:06;3.67;;;3.58;;
7747;SDS011;3918;42.564;23.164;2022-11-21T08:49:33;4.13;;;3.95;;
7747;SDS011;3918;42.564;23.164;2022-11-21T08:52:01;4.55;;;4.25;;
7747;SDS011;3918;42.564;23.164;2022-11-21T08:54:28;4.03;;;3.72;;
7747;SDS011;3918;42.564;23.164;2022-11-21T08:56:55;3.30;;;3.20;;
7747;SDS011;3918;42.564;23.164;2022-11-21T08:59:22;3.30;;;3.20;;
7747;SDS011;3918;42.564;23.164;2022-11-21T09:01:49;4.90;;;3.30;;
7747;SDS011;3918;42.564;23.164;2022-11-21T09:04:16;3.00;;;2.90;;
7747;SDS011;3918;42.564;23.164;2022-11-21T09:06:43;4.20;;;4.00;;
7747;SDS011;3918;42.564;23.164;2022-11-21T09:09:11;3.35;;;3.20;;
7747;SDS011;3918;42.564;23.164;2022-11-21T09:11:38;3.10;;;3.00;;
7747;SDS011;3918;42.564;23.164;2022-11-21T09:14:05;3.28;;;3.17;;
7747;SDS011;3918;42.564;23.164;2022-11-21T09:16:50;3.50;;;3.30;;
7747;SDS011;3918;42.564;23.164;2022-11-21T09:19:34;3.53;;;3.42;;
7747;SDS011;3918;42.564;23.164;2022-11-21T09:22:01;7.63;;;4.25;;
7747;SDS011;3918;42.564;23.164;2022-11-21T09:24:29;4.82;;;3.97;;
7747;SDS011;3918;42.564;23.164;2022-11-21T09:26:56;4.30;;;4.10;;
7747;SDS011;3918;42.564;23.164;2022-11-21T09:29:24;4.20;;;4.00;;
7747;SDS011;3918;42.564;23.164;2022-11-21T09:31:51;4.72;;;4.53;;
7747;SDS011;3918;42.564;23.164;2022-11-21T09:34:17;4.80;;;4.60;;
7747;SDS011;3918;42.564;23.164;2022-11-21T09:36:44;4.60;;;4.40;;
7747;SDS011;3918;42.564;23.164;2022-11-21T09:39:11;4.40;;;4.20;;
7747;SDS011;3918;42.564;23.164;2022-11-21T09:41:40;4.70;;;4.38;;
7747;SDS011;3918;42.564;23.164;2022-11-21T09:47:21;4.20;;;3.88;;
7747;SDS011;3918;42.564;23.164;2022-11-21T09:49:52;4.65;;;4.45;;
7747;SDS011;3918;42.564;23.164;2022-11-21T09:52:24;4.20;;;3.95;;
7747;SDS011;3918;42.564;23.164;2022-11-21T09:54:58;5.18;;;4.88;;
7747;SDS011;3918;42.564;23.164;2022-11-21T09:57:31;8.10;;;4.47;;
7747;SDS011;3918;42.564;23.164;2022-11-21T10:00:00;4.43;;;4.13;;
7747;SDS011;3918;42.564;23.164;2022-11-21T10:02:34;4.43;;;4.22;;
7747;SDS011;3918;42.564;23.164;2022-11-21T10:05:01;4.55;;;4.35;;
7747;SDS011;3918;42.564;23.164;2022-11-21T10:07:29;5.55;;;5.03;;
7747;SDS011;3918;42.564;23.164;2022-11-21T10:10:03;4.82;;;4.43;;
7747;SDS011;3918;42.564;23.164;2022-11-21T10:12:59;5.05;;;4.82;;
7747;SDS011;3918;42.564;23.164;2022-11-21T10:15:45;4.35;;;4.15;;
7747;SDS011;3918;42.564;23.164;2022-11-21T10:24:38;4.13;;;3.92;;
7747;SDS011;3918;42.564;23.164;2022-11-21T10:27:10;4.45;;;4.25;;
7747;SDS011;3918;42.564;23.164;2022-11-21T10:29:44;4.00;;;3.80;;
7747;SDS011;3918;42.564;23.164;2022-11-21T10:32:19;4.70;;;4.30;;
7747;SDS011;3918;42.564;23.164;2022-11-21T10:34:50;4.00;;;3.80;;
7747;SDS011;3918;42.564;23.164;2022-11-21T10:37:25;3.88;;;3.60;;
7747;SDS011;3918;42.564;23.164;2022-11-21T10:39:57;3.50;;;3.40;;
7747;SDS011;3918;42.564;23.164;2022-11-21T10:42:37;5.50;;;5.00;;
7747;SDS011;3918;42.564;23.164;2022-11-21T10:45:11;5.10;;;4.70;;
7747;SDS011;3918;42.564;23.164;2022-11-21T10:47:41;4.53;;;4.32;;
7747;SDS011;3918;42.564;23.164;2022-11-21T10:53:09;4.18;;;3.97;;
7747;SDS011;3918;42.564;23.164;2022-11-21T10:56:00;4.03;;;3.83;;
7747;SDS011;3918;42.564;23.164;2022-11-21T10:58:39;4.35;;;4.03;;
7747;SDS011;3918;42.564;23.164;2022-11-21T11:01:19;4.13;;;3.92;;
7747;SDS011;3918;42.564;23.164;2022-11-21T11:04:02;4.43;;;4.20;;
7747;SDS011;3918;42.564;23.164;2022-11-21T11:06:31;4.85;;;4.45;;
7747;SDS011;3918;42.564;23.164;2022-11-21T11:08:59;4.28;;;4.07;;
7747;SDS011;3918;42.564;23.164;2022-11-21T11:11:25;4.40;;;4.20;;
7747;SDS011;3918;42.564;23.164;2022-11-21T11:13:54;3.67;;;3.58;;
7747;SDS011;3918;42.564;23.164;2022-11-21T11:16:25;4.85;;;4.45;;
7747;SDS011;3918;42.564;23.164;2022-11-21T11:18:57;4.78;;;4.57;;
7747;SDS011;3918;42.564;23.164;2022-11-21T11:21:26;5.45;;;4.70;;
7747;SDS011;3918;42.564;23.164;2022-11-21T11:24:04;5.05;;;4.85;;
7747;SDS011;3918;42.564;23.164;2022-11-21T11:26:49;4.53;;;4.22;;
7747;SDS011;3918;42.564;23.164;2022-11-21T11:29:18;4.53;;;4.22;;
7747;SDS011;3918;42.564;23.164;2022-11-21T11:31:51;4.30;;;4.10;;
7747;SDS011;3918;42.564;23.164;2022-11-21T11:34:20;4.32;;;4.13;;
7747;SDS011;3918;42.564;23.164;2022-11-21T11:36:56;4.35;;;4.07;;
7747;SDS011;3918;42.564;23.164;2022-11-21T11:39:37;4.60;;;4.20;;
7747;SDS011;3918;42.564;23.164;2022-11-21T11:42:10;4.00;;;3.80;;
7747;SDS011;3918;42.564;23.164;2022-11-21T11:45:10;4.65;;;4.40;;
7747;SDS011;3918;42.564;23.164;2022-11-21T11:48:00;4.68;;;4.43;;
7747;SDS011;3918;42.564;23.164;2022-11-21T11:50:34;6.97;;;3.53;;
7747;SDS011;3918;42.564;23.164;2022-11-21T11:53:07;4.25;;;3.95;;
7747;SDS011;3918;42.564;23.164;2022-11-21T11:55:39;4.50;;;4.20;;
7747;SDS011;3918;42.564;23.164;2022-11-21T11:58:12;4.18;;;3.88;;
7747;SDS011;3918;42.564;23.164;2022-11-21T12:00:47;4.32;;;3.92;;
7747;SDS011;3918;42.564;23.164;2022-11-21T12:03:23;5.78;;;3.47;;
7747;SDS011;3918;42.564;23.164;2022-11-21T12:05:57;6.97;;;3.78;;
7747;SDS011;3918;42.564;23.164;2022-11-21T12:08:32;3.55;;;3.25;;
7747;SDS011;3918;42.564;23.164;2022-11-21T12:11:09;3.30;;;3.10;;
7747;SDS011;3918;42.564;23.164;2022-11-21T12:14:00;4.18;;;3.30;;
7747;SDS011;3918;42.564;23.164;2022-11-21T12:16:36;3.15;;;2.95;;
7747;SDS011;3918;42.564;23.164;2022-11-21T12:19:09;2.70;;;2.50;;
7747;SDS011;3918;42.564;23.164;2022-11-21T12:21:39;5.80;;;2.53;;
7747;SDS011;3918;42.564;23.164;2022-11-21T12:24:07;2.63;;;2.42;;
7747;SDS011;3918;42.564;23.164;2022-11-21T12:26:39;4.40;;;2.50;;
7747;SDS011;3918;42.564;23.164;2022-11-21T12:29:18;3.63;;;2.75;;
7747;SDS011;3918;42.564;23.164;2022-11-21T12:32:07;1.80;;;1.70;;
7747;SDS011;3918;42.564;23.164;2022-11-21T12:34:49;3.05;;;2.95;;
7747;SDS011;3918;42.564;23.164;2022-11-21T12:37:28;3.85;;;3.63;;
7747;SDS011;3918;42.564;23.164;2022-11-21T12:40:08;3.35;;;3.15;;
7747;SDS011;3918;42.564;23.164;2022-11-21T12:42:55;5.47;;;4.05;;
7747;SDS011;3918;42.564;23.164;2022-11-21T12:45:32;3.78;;;3.47;;
7747;SDS011;3918;42.564;23.164;2022-11-21T12:48:10;3.65;;;3.40;;
7747;SDS011;3918;42.564;23.164;2022-11-21T12:51:28;3.55;;;3.25;;
7747;SDS011;3918;42.564;23.164;2022-11-21T12:54:47;3.17;;;2.97;;
7747;SDS011;3918;42.564;23.164;2022-11-21T12:57:25;4.20;;;3.80;;
7747;SDS011;3918;42.564;23.164;2022-11-21T13:00:03;3.40;;;3.08;;
7747;SDS011;3918;42.564;23.164;2022-11-21T13:02:39;4.55;;;4.15;;
7747;SDS011;3918;42.564;23.164;2022-11-21T13:05:22;5.68;;;5.38;;
7747;SDS011;3918;42.564;23.164;2022-11-21T13:07:53;7.88;;;7.47;;
7747;SDS011;3918;42.564;23.164;2022-11-21T13:10:27;2.08;;;1.95;;
7747;SDS011;3918;42.564;23.164;2022-11-21T13:12:56;3.35;;;2.08;;
7747;SDS011;3918;42.564;23.164;2022-11-21T13:15:27;2.90;;;2.08;;
7747;SDS011;3918;42.564;23.164;2022-11-21T13:18:01;3.80;;;2.13;;
7747;SDS011;3918;42.564;23.164;2022-11-21T13:20:45;2.30;;;2.20;;
7747;SDS011;3918;42.564;23.164;2022-11-21T13:26:16;2.08;;;1.98;;
7747;SDS011;3918;42.564;23.164;2022-11-21T13:29:19;1.83;;;1.73;;
7747;SDS011;3918;42.564;23.164;2022-11-21T13:31:45;2.00;;;1.90;;
7747;SDS011;3918;42.564;23.164;2022-11-21T13:34:33;2.97;;;1.80;;
7747;SDS011;3918;42.564;23.164;2022-11-21T13:37:02;1.85;;;1.75;;
7747;SDS011;3918;42.564;23.164;2022-11-21T13:39:31;1.95;;;1.85;;
7747;SDS011;3918;42.564;23.164;2022-11-21T13:42:00;1.77;;;1.67;;
7747;SDS011;3918;42.564;23.164;2022-11-21T13:44:49;1.83;;;1.73;;
7747;SDS011;3918;42.564;23.164;2022-11-21T13:50:52;1.50;;;1.40;;
7747;SDS011;3918;42.564;23.164;2022-11-21T13:53:41;1.70;;;1.60;;
7747;SDS011;3918;42.564;23.164;2022-11-21T13:56:35;1.92;;;1.83;;
7747;SDS011;3918;42.564;23.164;2022-11-21T13:59:27;2.05;;;1.80;;
7747;SDS011;3918;42.564;23.164;2022-11-21T14:07:47;2.40;;;2.30;;
7747;SDS011;3918;42.564;23.164;2022-11-21T14:10:18;3.10;;;2.80;;
7747;SDS011;3918;42.564;23.164;2022-11-21T14:12:57;3.45;;;3.25;;
7747;SDS011;3918;42.564;23.164;2022-11-21T14:15:26;3.00;;;2.80;;
7747;SDS011;3918;42.564;23.164;2022-11-21T14:17:59;3.20;;;2.40;;
7747;SDS011;3918;42.564;23.164;2022-11-21T14:20:27;3.25;;;2.40;;
7747;SDS011;3918;42.564;23.164;2022-11-21T14:22:56;2.50;;;2.40;;
7747;SDS011;3918;42.564;23.164;2022-11-21T14:25:28;3.15;;;2.50;;
7747;SDS011;3918;42.564;23.164;2022-11-21T14:28:10;4.20;;;2.55;;
7747;SDS011;3918;42.564;23.164;2022-11-21T14:30:41;3.47;;;2.70;;
7747;SDS011;3918;42.564;23.164;2022-11-21T14:36:04;2.97;;;2.70;;
7747;SDS011;3918;42.564;23.164;2022-11-21T14:38:35;2.60;;;2.40;;
7747;SDS011;3918;42.564;23.164;2022-11-21T14:41:23;2.55;;;2.35;;
7747;SDS011;3918;42.564;23.164;2022-11-21T14:44:13;2.90;;;2.70;;
7747;SDS011;3918;42.564;23.164;2022-11-21T14:46:49;4.80;;;4.50;;
7747;SDS011;3918;42.564;23.164;2022-11-21T14:49:21;3.90;;;3.60;;
7747;SDS011;3918;42.564;23.164;2022-11-21T14:52:12;4.20;;;4.00;;
7747;SDS011;3918;42.564;23.164;2022-11-21T14:54:45;7.53;;;4.55;;
7747;SDS011;3918;42.564;23.164;2022-11-21T14:57:17;3.83;;;3.63;;
7747;SDS011;3918;42.564;23.164;2022-11-21T14:59:47;3.55;;;3.35;;
7747;SDS011;3918;42.564;23.164;2022-11-21T15:02:16;4.70;;;4.30;;
7747;SDS011;3918;42.564;23.164;2022-11-21T15:04:45;4.47;;;4.10;;
7747;SDS011;3918;42.564;23.164;2022-11-21T15:07:19;3.70;;;3.42;;
7747;SDS011;3918;42.564;23.164;2022-11-21T15:09:48;3.75;;;3.40;;
7747;SDS011;3918;42.564;23.164;2022-11-21T15:12:18;3.50;;;2.95;;
7747;SDS011;3918;42.564;23.164;2022-11-21T15:14:54;3.88;;;3.65;;
7747;SDS011;3918;42.564;23.164;2022-11-21T15:17:25;4.20;;;3.90;;
7747;SDS011;3918;42.564;23.164;2022-11-21T15:20:04;4.20;;;3.80;;
7747;SDS011;3918;42.564;23.164;2022-11-21T15:22:34;4.20;;;3.45;;
7747;SDS011;3918;42.564;23.164;2022-11-21T15:25:06;3.50;;;3.30;;
7747;SDS011;3918;42.564;23.164;2022-11-21T15:27:41;4.53;;;3.80;;
7747;SDS011;3918;42.564;23.164;2022-11-21T15:32:59;4.60;;;3.85;;
7747;SDS011;3918;42.564;23.164;2022-11-21T15:35:40;6.18;;;4.55;;
7747;SDS011;3918;42.564;23.164;2022-11-21T15:38:13;4.57;;;4.15;;
7747;SDS011;3918;42.564;23.164;2022-11-21T15:40:54;6.75;;;5.80;;
7747;SDS011;3918;42.564;23.164;2022-11-21T15:43:36;5.15;;;4.70;;
7747;SDS011;3918;42.564;23.164;2022-11-21T15:46:12;6.20;;;5.60;;
7747;SDS011;3918;42.564;23.164;2022-11-21T15:48:40;8.25;;;6.38;;
7747;SDS011;3918;42.564;23.164;2022-11-21T15:51:08;6.35;;;5.75;;
7747;SDS011;3918;42.564;23.164;2022-11-21T15:53:36;6.50;;;6.00;;
7747;SDS011;3918;42.564;23.164;2022-11-21T15:56:03;8.82;;;6.05;;
7747;SDS011;3918;42.564;23.164;2022-11-21T15:58:31;6.65;;;6.05;;
7747;SDS011;3918;42.564;23.164;2022-11-21T16:00:58;8.65;;;7.95;;
7747;SDS011;3918;42.564;23.164;2022-11-21T16:03:26;10.52;;;9.45;;
7747;SDS011;3918;42.564;23.164;2022-11-21T16:05:53;11.85;;;10.55;;
7747;SDS011;3918;42.564;23.164;2022-11-21T16:08:20;12.82;;;11.60;;
7747;SDS011;3918;42.564;23.164;2022-11-21T16:10:47;12.27;;;10.77;;
7747;SDS011;3918;42.564;23.164;2022-11-21T16:13:14;13.10;;;12.00;;
7747;SDS011;3918;42.564;23.164;2022-11-21T16:15:40;16.65;;;15.07;;
7747;SDS011;3918;42.564;23.164;2022-11-21T16:18:07;22.05;;;16.67;;
7747;SDS011;3918;42.564;23.164;2022-11-21T16:20:36;323.10;;;25.45;;
7747;SDS011;3918;42.564;23.164;2022-11-21T16:23:02;420.10;;;29.98;;
7747;SDS011;3918;42.564;23.164;2022-11-21T16:25:30;424.98;;;28.58;;
7747;SDS011;3918;42.564;23.164;2022-11-21T16:27:57;10.55;;;9.48;;
7747;SDS011;3918;42.564;23.164;2022-11-21T16:30:23;11.05;;;9.20;;
7747;SDS011;3918;42.564;23.164;2022-11-21T16:32:50;12.68;;;10.23;;
7747;SDS011;3918;42.564;23.164;2022-11-21T16:35:19;11.45;;;9.10;;
7747;SDS011;3918;42.564;23.164;2022-11-21T16:37:48;10.85;;;9.25;;
7747;SDS011;3918;42.564;23.164;2022-11-21T16:40:16;11.10;;;10.03;;
7747;SDS011;3918;42.564;23.164;2022-11-21T16:42:43;11.13;;;9.93;;
7747;SDS011;3918;42.564;23.164;2022-11-21T16:45:09;19.13;;;13.95;;
7747;SDS011;3918;42.564;23.164;2022-11-21T16:47:36;14.35;;;11.57;;
7747;SDS011;3918;42.564;23.164;2022-11-21T16:50:03;41.92;;;13.80;;
7747;SDS011;3918;42.564;23.164;2022-11-21T16:52:31;28.40;;;14.15;;
7747;SDS011;3918;42.564;23.164;2022-11-21T16:55:01;11.02;;;9.93;;
7747;SDS011;3918;42.564;23.164;2022-11-21T16:57:28;10.90;;;9.85;;
7747;SDS011;3918;42.564;23.164;2022-11-21T16:59:57;8.95;;;8.20;;
7747;SDS011;3918;42.564;23.164;2022-11-21T17:02:24;9.43;;;8.43;;
7747;SDS011;3918;42.564;23.164;2022-11-21T17:04:51;8.68;;;7.97;;
7747;SDS011;3918;42.564;23.164;2022-11-21T17:07:17;11.07;;;10.07;;
7747;SDS011;3918;42.564;23.164;2022-11-21T17:09:44;10.13;;;9.50;;
7747;SDS011;3918;42.564;23.164;2022-11-21T17:12:12;8.47;;;7.67;;
7747;SDS011;3918;42.564;23.164;2022-11-21T17:14:39;7.43;;;6.93;;
7747;SDS011;3918;42.564;23.164;2022-11-21T17:17:06;6.43;;;6.03;;
7747;SDS011;3918;42.564;23.164;2022-11-21T17:19:33;6.90;;;6.20;;
7747;SDS011;3918;42.564;23.164;2022-11-21T17:21:59;7.10;;;6.70;;
7747;SDS011;3918;42.564;23.164;2022-11-21T17:24:26;5.77;;;5.47;;
7747;SDS011;3918;42.564;23.164;2022-11-21T17:26:53;5.40;;;5.20;;
7747;SDS011;3918;42.564;23.164;2022-11-21T17:29:21;4.47;;;4.27;;
7747;SDS011;3918;42.564;23.164;2022-11-21T17:31:48;5.57;;;5.20;;
7747;SDS011;3918;42.564;23.164;2022-11-21T17:34:15;5.43;;;5.13;;
7747;SDS011;3918;42.564;23.164;2022-11-21T17:36:42;5.10;;;4.90;;
7747;SDS011;3918;42.564;23.164;2022-11-21T17:39:09;5.73;;;5.43;;
7747;SDS011;3918;42.564;23.164;2022-11-21T17:41:37;4.70;;;4.50;;
7747;SDS011;3918;42.564;23.164;2022-11-21T17:44:05;4.47;;;4.27;;
7747;SDS011;3918;42.564;23.164;2022-11-21T17:46:33;5.53;;;5.23;;
7747;SDS011;3918;42.564;23.164;2022-11-21T17:48:59;7.93;;;7.20;;
7747;SDS011;3918;42.564;23.164;2022-11-21T17:51:27;8.33;;;7.73;;
7747;SDS011;3918;42.564;23.164;2022-11-21T17:53:56;7.07;;;6.57;;
7747;SDS011;3918;42.564;23.164;2022-11-21T17:56:25;6.20;;;5.60;;
7747;SDS011;3918;42.564;23.164;2022-11-21T17:58:53;5.37;;;5.07;;
7747;SDS011;3918;42.564;23.164;2022-11-21T18:01:20;4.40;;;4.20;;
7747;SDS011;3918;42.564;23.164;2022-11-21T18:03:52;4.87;;;4.67;;
7747;SDS011;3918;42.564;23.164;2022-11-21T18:06:20;4.90;;;4.70;;
7747;SDS011;3918;42.564;23.164;2022-11-21T18:08:47;5.20;;;4.90;;
7747;SDS011;3918;42.564;23.164;2022-11-21T18:11:15;5.67;;;5.37;;
7747;SDS011;3918;42.564;23.164;2022-11-21T18:13:44;5.50;;;5.20;;
7747;SDS011;3918;42.564;23.164;2022-11-21T18:16:12;5.67;;;5.27;;
7747;SDS011;3918;42.564;23.164;2022-11-21T18:18:40;5.73;;;5.43;;
7747;SDS011;3918;42.564;23.164;2022-11-21T18:21:09;5.03;;;4.73;;
7747;SDS011;3918;42.564;23.164;2022-11-21T18:23:37;6.10;;;5.70;;
7747;SDS011;3918;42.564;23.164;2022-11-21T18:26:05;5.53;;;5.07;;
7747;SDS011;3918;42.564;23.164;2022-11-21T18:28:33;5.97;;;5.57;;
7747;SDS011;3918;42.564;23.164;2022-11-21T18:31:03;8.37;;;7.77;;
7747;SDS011;3918;42.564;23.164;2022-11-21T18:33:31;7.43;;;6.83;;
7747;SDS011;3918;42.564;23.164;2022-11-21T18:35:59;5.60;;;5.20;;
7747;SDS011;3918;42.564;23.164;2022-11-21T18:38:29;6.90;;;6.40;;
7747;SDS011;3918;42.564;23.164;2022-11-21T18:41:01;6.20;;;5.67;;
7747;SDS011;3918;42.564;23.164;2022-11-21T18:43:29;6.10;;;5.53;;
7747;SDS011;3918;42.564;23.164;2022-11-21T18:46:00;4.83;;;4.53;;
7747;SDS011;3918;42.564;23.164;2022-11-21T18:48:27;5.93;;;5.33;;
7747;SDS011;3918;42.564;23.164;2022-11-21T18:50:54;5.23;;;4.87;;
7747;SDS011;3918;42.564;23.164;2022-11-21T18:53:21;6.33;;;5.77;;
7747;SDS011;3918;42.564;23.164;2022-11-21T18:55:49;6.80;;;6.20;;
7747;SDS011;3918;42.564;23.164;2022-11-21T18:58:16;6.93;;;6.43;;
7747;SDS011;3918;42.564;23.164;2022-11-21T19:00:43;7.67;;;7.00;;
7747;SDS011;3918;42.564;23.164;2022-11-21T19:03:09;8.63;;;7.83;;
7747;SDS011;3918;42.564;23.164;2022-11-21T19:05:38;7.83;;;7.03;;
7747;SDS011;3918;42.564;23.164;2022-11-21T19:08:06;7.83;;;7.10;;
7747;SDS011;3918;42.564;23.164;2022-11-21T19:10:34;8.77;;;7.97;;
7747;SDS011;3918;42.564;23.164;2022-11-21T19:13:02;8.20;;;7.47;;
7747;SDS011;3918;42.564;23.164;2022-11-21T19:15:29;8.60;;;7.80;;
7747;SDS011;3918;42.564;23.164;2022-11-21T19:17:57;8.27;;;7.57;;
7747;SDS011;3918;42.564;23.164;2022-11-21T19:20:23;8.77;;;7.30;;
7747;SDS011;3918;42.564;23.164;2022-11-21T19:22:50;7.43;;;6.73;;
7747;SDS011;3918;42.564;23.164;2022-11-21T19:25:17;6.47;;;5.87;;
7747;SDS011;3918;42.564;23.164;2022-11-21T19:27:44;6.60;;;5.90;;
7747;SDS011;3918;42.564;23.164;2022-11-21T19:30:12;6.77;;;6.17;;
7747;SDS011;3918;42.564;23.164;2022-11-21T19:32:39;6.60;;;6.00;;
7747;SDS011;3918;42.564;23.164;2022-11-21T19:35:06;6.67;;;6.07;;
7747;SDS011;3918;42.564;23.164;2022-11-21T19:37:34;6.43;;;5.87;;
7747;SDS011;3918;42.564;23.164;2022-11-21T19:40:01;6.07;;;5.57;;
7747;SDS011;3918;42.564;23.164;2022-11-21T19:42:29;7.03;;;6.50;;
7747;SDS011;3918;42.564;23.164;2022-11-21T19:44:56;6.60;;;6.00;;
7747;SDS011;3918;42.564;23.164;2022-11-21T19:47:25;6.83;;;6.23;;
7747;SDS011;3918;42.564;23.164;2022-11-21T19:49:53;6.50;;;6.00;;
7747;SDS011;3918;42.564;23.164;2022-11-21T19:52:20;7.20;;;6.50;;
7747;SDS011;3918;42.564;23.164;2022-11-21T19:54:47;6.80;;;6.10;;
7747;SDS011;3918;42.564;23.164;2022-11-21T19:57:13;5.30;;;4.90;;
7747;SDS011;3918;42.564;23.164;2022-11-21T19:59:40;6.30;;;5.80;;
